sensor_id;sensor_type;location;lat;lon;timestamp;P1;durP1;ratioP1;P2;durP2;ratioP2
31978;SDS011;18502;43.574;1.276;2023-03-14T07:01:44;26.23;;;5.93;;
31978;SDS011;18502;43.574;1.276;2023-03-14T07:04:10;34.90;;;5.45;;
31978;SDS011;18502;43.574;1.276;2023-03-14T07:06:36;37.88;;;5.57;;
31978;SDS011;18502;43.574;1.276;2023-03-14T07:09:02;39.10;;;8.52;;
31978;SDS011;18502;43.574;1.276;2023-03-14T07:11:27;25.88;;;5.25;;
31978;SDS011;18502;43.574;1.276;2023-03-14T07:13:53;30.60;;;5.00;;
31978;SDS011;18502;43.574;1.276;2023-03-14T07:16:19;33.03;;;4.80;;
31978;SDS011;18502;43.574;1.276;2023-03-14T07:18:45;33.58;;;5.28;;
31978;SDS011;18502;43.574;1.276;2023-03-14T07:21:11;28.90;;;5.25;;
31978;SDS011;18502;43.574;1.276;2023-03-14T07:23:37;36.05;;;6.15;;
31978;SDS011;18502;43.574;1.276;2023-03-14T07:26:03;32.65;;;5.32;;
31978;SDS011;18502;43.574;1.276;2023-03-14T07:28:29;28.42;;;3.90;;
31978;SDS011;18502;43.574;1.276;2023-03-14T07:30:55;42.95;;;7.57;;
31978;SDS011;18502;43.574;1.276;2023-03-14T07:33:21;31.83;;;5.95;;
31978;SDS011;18502;43.574;1.276;2023-03-14T07:35:47;33.85;;;4.35;;
31978;SDS011;18502;43.574;1.276;2023-03-14T07:38:13;23.60;;;5.05;;
31978;SDS011;18502;43.574;1.276;2023-03-14T07:40:39;32.88;;;6.57;;
31978;SDS011;18502;43.574;1.276;2023-03-14T07:43:05;47.00;;;6.65;;
31978;SDS011;18502;43.574;1.276;2023-03-14T07:45:31;35.33;;;6.10;;
31978;SDS011;18502;43.574;1.276;2023-03-14T07:47:56;25.85;;;5.47;;
31978;SDS011;18502;43.574;1.276;2023-03-14T07:50:23;43.50;;;7.00;;
31978;SDS011;18502;43.574;1.276;2023-03-14T07:52:54;26.92;;;4.90;;
31978;SDS011;18502;43.574;1.276;2023-03-14T07:55:20;35.17;;;5.68;;
31978;SDS011;18502;43.574;1.276;2023-03-14T07:57:46;29.35;;;6.78;;
31978;SDS011;18502;43.574;1.276;2023-03-14T08:00:12;38.70;;;5.90;;
31978;SDS011;18502;43.574;1.276;2023-03-14T08:02:39;23.73;;;4.20;;
31978;SDS011;18502;43.574;1.276;2023-03-14T08:05:05;29.90;;;5.53;;
31978;SDS011;18502;43.574;1.276;2023-03-14T08:07:31;36.15;;;6.65;;
31978;SDS011;18502;43.574;1.276;2023-03-14T08:09:57;38.17;;;7.20;;
31978;SDS011;18502;43.574;1.276;2023-03-14T08:12:23;29.60;;;5.22;;
31978;SDS011;18502;43.574;1.276;2023-03-14T08:14:48;26.65;;;5.18;;
31978;SDS011;18502;43.574;1.276;2023-03-14T08:17:14;32.72;;;4.85;;
31978;SDS011;18502;43.574;1.276;2023-03-14T08:19:41;30.08;;;5.40;;
31978;SDS011;18502;43.574;1.276;2023-03-14T08:22:07;29.33;;;5.20;;
31978;SDS011;18502;43.574;1.276;2023-03-14T08:24:33;22.73;;;4.07;;
31978;SDS011;18502;43.574;1.276;2023-03-14T08:26:58;30.02;;;6.65;;
31978;SDS011;18502;43.574;1.276;2023-03-14T08:29:24;29.80;;;5.22;;
31978;SDS011;18502;43.574;1.276;2023-03-14T08:31:50;15.82;;;3.80;;
31978;SDS011;18502;43.574;1.276;2023-03-14T08:34:16;34.85;;;6.00;;
31978;SDS011;18502;43.574;1.276;2023-03-14T08:36:41;27.55;;;5.63;;
31978;SDS011;18502;43.574;1.276;2023-03-14T08:39:07;24.90;;;5.22;;
31978;SDS011;18502;43.574;1.276;2023-03-14T08:41:34;22.35;;;4.45;;
31978;SDS011;18502;43.574;1.276;2023-03-14T08:44:05;32.53;;;4.70;;
31978;SDS011;18502;43.574;1.276;2023-03-14T08:46:31;21.35;;;4.97;;
31978;SDS011;18502;43.574;1.276;2023-03-14T08:48:58;21.08;;;4.45;;
31978;SDS011;18502;43.574;1.276;2023-03-14T08:51:24;25.38;;;4.55;;
31978;SDS011;18502;43.574;1.276;2023-03-14T08:53:50;28.17;;;5.68;;
31978;SDS011;18502;43.574;1.276;2023-03-14T08:56:16;17.58;;;3.97;;
31978;SDS011;18502;43.574;1.276;2023-03-14T08:58:42;38.33;;;5.95;;
31978;SDS011;18502;43.574;1.276;2023-03-14T09:01:08;29.15;;;5.13;;
31978;SDS011;18502;43.574;1.276;2023-03-14T09:03:35;23.40;;;3.90;;
31978;SDS011;18502;43.574;1.276;2023-03-14T09:06:01;24.95;;;5.00;;
31978;SDS011;18502;43.574;1.276;2023-03-14T09:08:28;20.88;;;4.68;;
31978;SDS011;18502;43.574;1.276;2023-03-14T09:10:54;35.38;;;3.90;;
31978;SDS011;18502;43.574;1.276;2023-03-14T09:13:19;32.80;;;5.72;;
31978;SDS011;18502;43.574;1.276;2023-03-14T09:15:49;21.55;;;3.95;;
31978;SDS011;18502;43.574;1.276;2023-03-14T09:18:17;19.83;;;4.28;;
31978;SDS011;18502;43.574;1.276;2023-03-14T09:20:43;31.77;;;4.90;;
31978;SDS011;18502;43.574;1.276;2023-03-14T09:23:09;23.58;;;5.15;;
31978;SDS011;18502;43.574;1.276;2023-03-14T09:25:34;30.75;;;4.55;;
31978;SDS011;18502;43.574;1.276;2023-03-14T09:28:00;28.60;;;4.93;;
31978;SDS011;18502;43.574;1.276;2023-03-14T09:30:26;27.13;;;4.55;;
31978;SDS011;18502;43.574;1.276;2023-03-14T09:32:51;37.00;;;5.32;;
31978;SDS011;18502;43.574;1.276;2023-03-14T09:35:17;30.55;;;5.35;;
31978;SDS011;18502;43.574;1.276;2023-03-14T09:37:43;28.42;;;5.10;;
31978;SDS011;18502;43.574;1.276;2023-03-14T09:40:11;27.02;;;3.35;;
31978;SDS011;18502;43.574;1.276;2023-03-14T09:42:38;28.67;;;4.70;;
31978;SDS011;18502;43.574;1.276;2023-03-14T09:45:07;18.63;;;2.60;;
31978;SDS011;18502;43.574;1.276;2023-03-14T09:47:38;18.67;;;3.63;;
31978;SDS011;18502;43.574;1.276;2023-03-14T09:50:05;15.80;;;2.30;;
31978;SDS011;18502;43.574;1.276;2023-03-14T09:52:48;14.70;;;2.47;;
31978;SDS011;18502;43.574;1.276;2023-03-14T09:55:17;12.00;;;2.95;;
31978;SDS011;18502;43.574;1.276;2023-03-14T09:57:46;14.20;;;1.85;;
31978;SDS011;18502;43.574;1.276;2023-03-14T10:00:18;16.65;;;2.67;;
31978;SDS011;18502;43.574;1.276;2023-03-14T10:02:56;25.98;;;3.97;;
31978;SDS011;18502;43.574;1.276;2023-03-14T10:05:38;22.85;;;2.67;;
31978;SDS011;18502;43.574;1.276;2023-03-14T10:08:05;19.77;;;3.83;;
31978;SDS011;18502;43.574;1.276;2023-03-14T10:10:31;17.60;;;2.38;;
31978;SDS011;18502;43.574;1.276;2023-03-14T10:15:30;13.27;;;2.42;;
31978;SDS011;18502;43.574;1.276;2023-03-14T10:17:59;20.35;;;3.85;;
31978;SDS011;18502;43.574;1.276;2023-03-14T10:20:27;16.40;;;3.22;;
31978;SDS011;18502;43.574;1.276;2023-03-14T10:23:04;22.33;;;2.60;;
31978;SDS011;18502;43.574;1.276;2023-03-14T10:25:33;18.10;;;3.20;;
31978;SDS011;18502;43.574;1.276;2023-03-14T10:28:01;20.95;;;3.00;;
31978;SDS011;18502;43.574;1.276;2023-03-14T10:30:44;13.90;;;3.35;;
31978;SDS011;18502;43.574;1.276;2023-03-14T10:33:15;20.27;;;2.83;;
31978;SDS011;18502;43.574;1.276;2023-03-14T10:35:46;15.45;;;3.45;;
31978;SDS011;18502;43.574;1.276;2023-03-14T10:38:19;15.45;;;2.97;;
31978;SDS011;18502;43.574;1.276;2023-03-14T10:40:50;16.75;;;3.55;;
31978;SDS011;18502;43.574;1.276;2023-03-14T10:43:39;10.50;;;2.17;;
31978;SDS011;18502;43.574;1.276;2023-03-14T10:46:16;20.85;;;2.92;;
31978;SDS011;18502;43.574;1.276;2023-03-14T10:48:44;15.57;;;2.78;;
31978;SDS011;18502;43.574;1.276;2023-03-14T10:53:44;8.52;;;2.35;;
31978;SDS011;18502;43.574;1.276;2023-03-14T10:56:15;15.35;;;2.85;;
31978;SDS011;18502;43.574;1.276;2023-03-14T10:58:49;10.73;;;2.47;;
31978;SDS011;18502;43.574;1.276;2023-03-14T11:03:57;3.25;;;0.85;;
31978;SDS011;18502;43.574;1.276;2023-03-14T11:06:28;4.35;;;1.02;;
31978;SDS011;18502;43.574;1.276;2023-03-14T11:11:55;8.30;;;0.95;;
31978;SDS011;18502;43.574;1.276;2023-03-14T11:14:43;7.75;;;1.55;;
31978;SDS011;18502;43.574;1.276;2023-03-14T11:20:26;8.82;;;2.17;;
31978;SDS011;18502;43.574;1.276;2023-03-14T11:23:13;11.15;;;1.63;;
31978;SDS011;18502;43.574;1.276;2023-03-14T11:31:03;7.88;;;1.40;;
31978;SDS011;18502;43.574;1.276;2023-03-14T11:33:44;7.30;;;1.73;;
31978;SDS011;18502;43.574;1.276;2023-03-14T11:36:11;7.78;;;1.35;;
31978;SDS011;18502;43.574;1.276;2023-03-14T11:38:48;4.47;;;1.00;;
31978;SDS011;18502;43.574;1.276;2023-03-14T11:41:25;9.68;;;1.10;;
31978;SDS011;18502;43.574;1.276;2023-03-14T11:44:14;7.22;;;1.08;;
31978;SDS011;18502;43.574;1.276;2023-03-14T11:46:49;7.95;;;0.95;;
31978;SDS011;18502;43.574;1.276;2023-03-14T11:51:47;5.88;;;0.95;;
31978;SDS011;18502;43.574;1.276;2023-03-14T11:54:23;5.28;;;1.27;;
31978;SDS011;18502;43.574;1.276;2023-03-14T11:59:30;8.65;;;3.17;;
31978;SDS011;18502;43.574;1.276;2023-03-14T12:04:43;5.90;;;1.70;;
31978;SDS011;18502;43.574;1.276;2023-03-14T12:13:12;6.93;;;1.75;;
31978;SDS011;18502;43.574;1.276;2023-03-14T12:15:40;7.60;;;1.42;;
31978;SDS011;18502;43.574;1.276;2023-03-14T12:18:29;7.22;;;1.33;;
31978;SDS011;18502;43.574;1.276;2023-03-14T12:21:03;8.73;;;1.80;;
31978;SDS011;18502;43.574;1.276;2023-03-14T12:23:50;11.00;;;1.75;;
31978;SDS011;18502;43.574;1.276;2023-03-14T12:26:21;9.60;;;1.48;;
31978;SDS011;18502;43.574;1.276;2023-03-14T12:44:41;7.55;;;1.70;;
31978;SDS011;18502;43.574;1.276;2023-03-14T12:49:43;4.70;;;1.08;;
31978;SDS011;18502;43.574;1.276;2023-03-14T12:52:27;2.08;;;0.90;;
31978;SDS011;18502;43.574;1.276;2023-03-14T12:55:10;3.83;;;0.77;;
31978;SDS011;18502;43.574;1.276;2023-03-14T13:05:57;3.60;;;0.70;;
31978;SDS011;18502;43.574;1.276;2023-03-14T13:11:02;4.05;;;0.93;;
31978;SDS011;18502;43.574;1.276;2023-03-14T13:13:31;3.85;;;1.45;;
31978;SDS011;18502;43.574;1.276;2023-03-14T13:16:00;2.78;;;0.73;;
31978;SDS011;18502;43.574;1.276;2023-03-14T13:21:13;5.60;;;1.40;;
31978;SDS011;18502;43.574;1.276;2023-03-14T13:26:22;8.52;;;1.65;;
31978;SDS011;18502;43.574;1.276;2023-03-14T13:28:50;6.75;;;1.50;;
31978;SDS011;18502;43.574;1.276;2023-03-14T13:31:23;7.97;;;1.45;;
31978;SDS011;18502;43.574;1.276;2023-03-14T13:34:00;9.00;;;1.83;;
31978;SDS011;18502;43.574;1.276;2023-03-14T13:36:26;7.13;;;1.40;;
31978;SDS011;18502;43.574;1.276;2023-03-14T13:38:56;8.13;;;2.53;;
31978;SDS011;18502;43.574;1.276;2023-03-14T13:41:23;4.18;;;0.82;;
31978;SDS011;18502;43.574;1.276;2023-03-14T13:43:49;5.80;;;1.17;;
31978;SDS011;18502;43.574;1.276;2023-03-14T13:46:22;9.18;;;1.40;;
31978;SDS011;18502;43.574;1.276;2023-03-14T13:48:51;3.13;;;0.88;;
31978;SDS011;18502;43.574;1.276;2023-03-14T13:51:26;3.20;;;0.85;;
31978;SDS011;18502;43.574;1.276;2023-03-14T13:53:56;2.75;;;0.38;;
31978;SDS011;18502;43.574;1.276;2023-03-14T13:56:24;1.42;;;0.40;;
31978;SDS011;18502;43.574;1.276;2023-03-14T13:58:52;1.05;;;0.10;;
31978;SDS011;18502;43.574;1.276;2023-03-14T14:01:38;1.83;;;0.43;;
31978;SDS011;18502;43.574;1.276;2023-03-14T14:04:14;3.83;;;0.60;;
31978;SDS011;18502;43.574;1.276;2023-03-14T14:06:47;3.25;;;1.60;;
31978;SDS011;18502;43.574;1.276;2023-03-14T14:09:24;4.03;;;1.17;;
31978;SDS011;18502;43.574;1.276;2023-03-14T14:11:56;3.22;;;1.20;;
31978;SDS011;18502;43.574;1.276;2023-03-14T14:17:04;4.00;;;1.92;;
31978;SDS011;18502;43.574;1.276;2023-03-14T14:19:32;3.15;;;1.00;;
31978;SDS011;18502;43.574;1.276;2023-03-14T14:22:00;1.90;;;0.88;;
31978;SDS011;18502;43.574;1.276;2023-03-14T14:24:28;2.90;;;0.90;;
31978;SDS011;18502;43.574;1.276;2023-03-14T14:27:13;3.40;;;0.88;;
31978;SDS011;18502;43.574;1.276;2023-03-14T14:29:41;4.25;;;0.98;;
31978;SDS011;18502;43.574;1.276;2023-03-14T14:34:46;6.30;;;0.93;;
31978;SDS011;18502;43.574;1.276;2023-03-14T14:37:26;3.72;;;0.82;;
31978;SDS011;18502;43.574;1.276;2023-03-14T14:40:27;10.77;;;2.60;;
31978;SDS011;18502;43.574;1.276;2023-03-14T14:42:49;5.13;;;1.88;;
31978;SDS011;18502;43.574;1.276;2023-03-14T14:45:17;7.55;;;1.88;;
31978;SDS011;18502;43.574;1.276;2023-03-14T14:47:52;8.27;;;2.37;;
31978;SDS011;18502;43.574;1.276;2023-03-14T14:50:37;6.88;;;2.72;;
31978;SDS011;18502;43.574;1.276;2023-03-14T14:53:18;13.63;;;5.70;;
31978;SDS011;18502;43.574;1.276;2023-03-14T14:55:52;6.00;;;1.73;;
31978;SDS011;18502;43.574;1.276;2023-03-14T15:01:04;7.10;;;1.73;;
31978;SDS011;18502;43.574;1.276;2023-03-14T15:03:41;4.10;;;1.10;;
31978;SDS011;18502;43.574;1.276;2023-03-14T15:06:08;6.35;;;1.42;;
31978;SDS011;18502;43.574;1.276;2023-03-14T15:08:37;5.47;;;2.25;;
31978;SDS011;18502;43.574;1.276;2023-03-14T15:11:03;10.30;;;3.42;;
31978;SDS011;18502;43.574;1.276;2023-03-14T15:13:30;7.38;;;3.22;;
31978;SDS011;18502;43.574;1.276;2023-03-14T15:15:55;6.35;;;2.65;;
31978;SDS011;18502;43.574;1.276;2023-03-14T15:18:22;6.28;;;2.75;;
31978;SDS011;18502;43.574;1.276;2023-03-14T15:20:53;6.10;;;1.45;;
31978;SDS011;18502;43.574;1.276;2023-03-14T15:23:20;5.70;;;2.25;;
31978;SDS011;18502;43.574;1.276;2023-03-14T15:25:46;9.00;;;2.65;;
31978;SDS011;18502;43.574;1.276;2023-03-14T15:28:17;5.35;;;1.95;;
31978;SDS011;18502;43.574;1.276;2023-03-14T15:30:52;5.20;;;1.50;;
31978;SDS011;18502;43.574;1.276;2023-03-14T15:33:19;9.63;;;2.25;;
31978;SDS011;18502;43.574;1.276;2023-03-14T15:35:46;7.20;;;1.45;;
31978;SDS011;18502;43.574;1.276;2023-03-14T15:38:13;12.45;;;3.03;;
31978;SDS011;18502;43.574;1.276;2023-03-14T15:40:41;8.55;;;1.63;;
31978;SDS011;18502;43.574;1.276;2023-03-14T15:43:07;4.15;;;1.55;;
31978;SDS011;18502;43.574;1.276;2023-03-14T15:45:33;8.65;;;1.20;;
31978;SDS011;18502;43.574;1.276;2023-03-14T15:47:59;5.82;;;1.10;;
31978;SDS011;18502;43.574;1.276;2023-03-14T15:50:24;7.75;;;1.55;;
31978;SDS011;18502;43.574;1.276;2023-03-14T15:52:51;9.52;;;3.92;;
31978;SDS011;18502;43.574;1.276;2023-03-14T15:55:16;13.65;;;6.05;;
31978;SDS011;18502;43.574;1.276;2023-03-14T15:57:43;6.97;;;2.17;;
31978;SDS011;18502;43.574;1.276;2023-03-14T16:00:13;7.38;;;2.10;;
31978;SDS011;18502;43.574;1.276;2023-03-14T16:02:42;9.20;;;4.40;;
31978;SDS011;18502;43.574;1.276;2023-03-14T16:05:10;11.15;;;4.80;;
31978;SDS011;18502;43.574;1.276;2023-03-14T16:07:36;10.07;;;3.60;;
31978;SDS011;18502;43.574;1.276;2023-03-14T16:10:03;6.63;;;1.52;;
31978;SDS011;18502;43.574;1.276;2023-03-14T16:12:30;10.60;;;4.97;;
31978;SDS011;18502;43.574;1.276;2023-03-14T16:14:56;8.35;;;2.95;;
31978;SDS011;18502;43.574;1.276;2023-03-14T16:17:21;4.38;;;1.13;;
31978;SDS011;18502;43.574;1.276;2023-03-14T16:19:47;6.03;;;1.50;;
31978;SDS011;18502;43.574;1.276;2023-03-14T16:22:13;8.13;;;1.92;;
31978;SDS011;18502;43.574;1.276;2023-03-14T16:24:38;4.95;;;1.23;;
31978;SDS011;18502;43.574;1.276;2023-03-14T16:27:04;10.98;;;2.22;;
31978;SDS011;18502;43.574;1.276;2023-03-14T16:29:30;5.07;;;1.63;;
31978;SDS011;18502;43.574;1.276;2023-03-14T16:31:56;10.05;;;2.25;;
31978;SDS011;18502;43.574;1.276;2023-03-14T16:34:21;8.77;;;1.90;;
31978;SDS011;18502;43.574;1.276;2023-03-14T16:36:47;7.88;;;3.63;;
31978;SDS011;18502;43.574;1.276;2023-03-14T16:39:16;7.75;;;1.70;;
31978;SDS011;18502;43.574;1.276;2023-03-14T16:41:42;6.75;;;1.95;;
31978;SDS011;18502;43.574;1.276;2023-03-14T16:44:07;9.00;;;1.58;;
31978;SDS011;18502;43.574;1.276;2023-03-14T16:46:33;5.47;;;1.63;;
31978;SDS011;18502;43.574;1.276;2023-03-14T16:49:00;7.93;;;1.33;;
31978;SDS011;18502;43.574;1.276;2023-03-14T16:51:26;7.38;;;2.00;;
31978;SDS011;18502;43.574;1.276;2023-03-14T16:53:52;13.85;;;3.58;;
31978;SDS011;18502;43.574;1.276;2023-03-14T16:56:18;14.02;;;3.78;;
31978;SDS011;18502;43.574;1.276;2023-03-14T16:58:44;7.95;;;2.67;;
31978;SDS011;18502;43.574;1.276;2023-03-14T17:01:11;8.98;;;2.38;;
31978;SDS011;18502;43.574;1.276;2023-03-14T17:03:39;14.30;;;2.92;;
31978;SDS011;18502;43.574;1.276;2023-03-14T17:06:15;6.85;;;1.60;;
31978;SDS011;18502;43.574;1.276;2023-03-14T17:08:44;10.73;;;2.37;;
31978;SDS011;18502;43.574;1.276;2023-03-14T17:11:09;7.05;;;1.45;;
31978;SDS011;18502;43.574;1.276;2023-03-14T17:13:36;12.43;;;2.22;;
31978;SDS011;18502;43.574;1.276;2023-03-14T17:16:03;11.40;;;2.58;;
31978;SDS011;18502;43.574;1.276;2023-03-14T17:18:29;12.18;;;2.25;;
31978;SDS011;18502;43.574;1.276;2023-03-14T17:20:56;11.35;;;2.65;;
31978;SDS011;18502;43.574;1.276;2023-03-14T17:23:23;15.20;;;2.92;;
31978;SDS011;18502;43.574;1.276;2023-03-14T17:25:50;12.90;;;2.50;;
31978;SDS011;18502;43.574;1.276;2023-03-14T17:28:16;8.68;;;2.42;;
31978;SDS011;18502;43.574;1.276;2023-03-14T17:30:43;15.93;;;3.25;;
31978;SDS011;18502;43.574;1.276;2023-03-14T17:33:09;13.70;;;2.22;;
31978;SDS011;18502;43.574;1.276;2023-03-14T17:35:35;16.42;;;4.45;;
31978;SDS011;18502;43.574;1.276;2023-03-14T17:38:01;13.40;;;3.08;;
31978;SDS011;18502;43.574;1.276;2023-03-14T17:40:27;17.30;;;3.90;;
31978;SDS011;18502;43.574;1.276;2023-03-14T17:42:52;12.70;;;2.80;;
31978;SDS011;18502;43.574;1.276;2023-03-14T17:45:18;9.57;;;2.20;;
31978;SDS011;18502;43.574;1.276;2023-03-14T17:47:44;11.45;;;2.58;;
31978;SDS011;18502;43.574;1.276;2023-03-14T17:50:10;8.73;;;1.63;;
31978;SDS011;18502;43.574;1.276;2023-03-14T17:52:36;11.40;;;2.72;;
31978;SDS011;18502;43.574;1.276;2023-03-14T17:55:02;11.63;;;2.20;;
31978;SDS011;18502;43.574;1.276;2023-03-14T17:57:29;8.70;;;2.85;;
31978;SDS011;18502;43.574;1.276;2023-03-14T17:59:54;15.07;;;2.97;;
31978;SDS011;18502;43.574;1.276;2023-03-14T18:02:20;11.02;;;2.58;;
31978;SDS011;18502;43.574;1.276;2023-03-14T18:04:47;12.15;;;1.77;;
31978;SDS011;18502;43.574;1.276;2023-03-14T18:07:13;13.52;;;2.47;;
31978;SDS011;18502;43.574;1.276;2023-03-14T18:09:40;20.58;;;3.53;;
31978;SDS011;18502;43.574;1.276;2023-03-14T18:12:06;11.00;;;2.40;;
31978;SDS011;18502;43.574;1.276;2023-03-14T18:14:32;14.93;;;2.13;;
31978;SDS011;18502;43.574;1.276;2023-03-14T18:16:59;12.02;;;2.47;;
31978;SDS011;18502;43.574;1.276;2023-03-14T18:19:24;7.75;;;2.20;;
31978;SDS011;18502;43.574;1.276;2023-03-14T18:21:50;7.20;;;1.70;;
31978;SDS011;18502;43.574;1.276;2023-03-14T18:24:17;7.78;;;1.70;;
31978;SDS011;18502;43.574;1.276;2023-03-14T18:26:43;8.98;;;1.90;;
31978;SDS011;18502;43.574;1.276;2023-03-14T18:29:09;8.30;;;1.48;;
31978;SDS011;18502;43.574;1.276;2023-03-14T18:31:39;9.70;;;2.28;;
31978;SDS011;18502;43.574;1.276;2023-03-14T18:34:05;7.80;;;1.65;;
31978;SDS011;18502;43.574;1.276;2023-03-14T18:36:31;6.82;;;1.70;;
31978;SDS011;18502;43.574;1.276;2023-03-14T18:38:57;5.32;;;1.70;;
31978;SDS011;18502;43.574;1.276;2023-03-14T18:41:24;8.27;;;1.48;;
31978;SDS011;18502;43.574;1.276;2023-03-14T18:43:50;8.20;;;2.28;;
31978;SDS011;18502;43.574;1.276;2023-03-14T18:46:17;7.65;;;2.28;;
31978;SDS011;18502;43.574;1.276;2023-03-14T18:48:44;13.70;;;4.90;;
31978;SDS011;18502;43.574;1.276;2023-03-14T18:51:11;13.93;;;4.13;;
31978;SDS011;18502;43.574;1.276;2023-03-14T18:53:41;19.95;;;6.15;;
31978;SDS011;18502;43.574;1.276;2023-03-14T18:56:08;16.73;;;6.15;;
31978;SDS011;18502;43.574;1.276;2023-03-14T18:58:36;20.83;;;8.15;;
31978;SDS011;18502;43.574;1.276;2023-03-14T19:01:03;15.13;;;4.28;;
31978;SDS011;18502;43.574;1.276;2023-03-14T19:03:29;20.30;;;4.00;;
31978;SDS011;18502;43.574;1.276;2023-03-14T19:05:56;20.33;;;6.78;;
31978;SDS011;18502;43.574;1.276;2023-03-14T19:08:23;19.45;;;7.43;;
31978;SDS011;18502;43.574;1.276;2023-03-14T19:10:50;38.22;;;7.43;;
31978;SDS011;18502;43.574;1.276;2023-03-14T19:13:18;20.98;;;3.90;;
31978;SDS011;18502;43.574;1.276;2023-03-14T19:15:45;39.20;;;11.57;;
31978;SDS011;18502;43.574;1.276;2023-03-14T19:18:11;21.90;;;7.15;;
31978;SDS011;18502;43.574;1.276;2023-03-14T19:20:37;21.08;;;6.68;;
31978;SDS011;18502;43.574;1.276;2023-03-14T19:23:04;18.08;;;6.72;;
31978;SDS011;18502;43.574;1.276;2023-03-14T19:25:29;24.02;;;7.55;;
31978;SDS011;18502;43.574;1.276;2023-03-14T19:27:55;21.00;;;4.47;;
31978;SDS011;18502;43.574;1.276;2023-03-14T19:30:21;18.30;;;3.80;;
31978;SDS011;18502;43.574;1.276;2023-03-14T19:32:46;17.50;;;3.08;;
31978;SDS011;18502;43.574;1.276;2023-03-14T19:35:13;15.00;;;2.80;;
31978;SDS011;18502;43.574;1.276;2023-03-14T19:37:38;26.63;;;4.55;;
31978;SDS011;18502;43.574;1.276;2023-03-14T19:40:04;23.08;;;4.47;;
31978;SDS011;18502;43.574;1.276;2023-03-14T19:42:33;23.20;;;10.25;;
31978;SDS011;18502;43.574;1.276;2023-03-14T19:44:58;21.00;;;6.63;;
31978;SDS011;18502;43.574;1.276;2023-03-14T19:47:24;28.30;;;10.65;;
31978;SDS011;18502;43.574;1.276;2023-03-14T19:49:50;33.45;;;12.02;;
31978;SDS011;18502;43.574;1.276;2023-03-14T19:52:15;34.90;;;14.90;;
31978;SDS011;18502;43.574;1.276;2023-03-14T19:54:42;16.75;;;3.60;;
31978;SDS011;18502;43.574;1.276;2023-03-14T19:57:08;16.45;;;4.35;;
31978;SDS011;18502;43.574;1.276;2023-03-14T19:59:33;20.58;;;5.03;;
31978;SDS011;18502;43.574;1.276;2023-03-14T20:01:59;21.98;;;4.80;;
31978;SDS011;18502;43.574;1.276;2023-03-14T20:04:25;26.35;;;5.85;;
31978;SDS011;18502;43.574;1.276;2023-03-14T20:06:52;24.27;;;3.83;;
31978;SDS011;18502;43.574;1.276;2023-03-14T20:09:21;18.58;;;3.95;;
31978;SDS011;18502;43.574;1.276;2023-03-14T20:11:46;19.77;;;5.13;;
31978;SDS011;18502;43.574;1.276;2023-03-14T20:14:12;19.63;;;3.47;;
31978;SDS011;18502;43.574;1.276;2023-03-14T20:16:40;28.75;;;5.07;;
31978;SDS011;18502;43.574;1.276;2023-03-14T20:19:07;24.02;;;4.85;;
31978;SDS011;18502;43.574;1.276;2023-03-14T20:21:36;24.55;;;4.80;;
31978;SDS011;18502;43.574;1.276;2023-03-14T20:24:02;15.43;;;3.13;;
31978;SDS011;18502;43.574;1.276;2023-03-14T20:26:29;16.25;;;3.22;;
31978;SDS011;18502;43.574;1.276;2023-03-14T20:28:58;25.38;;;4.07;;
31978;SDS011;18502;43.574;1.276;2023-03-14T20:31:24;23.92;;;6.85;;
31978;SDS011;18502;43.574;1.276;2023-03-14T20:33:50;16.05;;;3.50;;
31978;SDS011;18502;43.574;1.276;2023-03-14T20:36:15;26.13;;;4.00;;
31978;SDS011;18502;43.574;1.276;2023-03-14T20:38:41;22.30;;;2.97;;
31978;SDS011;18502;43.574;1.276;2023-03-14T20:41:07;19.25;;;3.17;;
31978;SDS011;18502;43.574;1.276;2023-03-14T20:43:34;26.98;;;3.17;;
31978;SDS011;18502;43.574;1.276;2023-03-14T20:46:01;17.48;;;2.92;;
31978;SDS011;18502;43.574;1.276;2023-03-14T20:48:27;25.20;;;4.32;;
31978;SDS011;18502;43.574;1.276;2023-03-14T20:50:54;16.45;;;2.47;;
31978;SDS011;18502;43.574;1.276;2023-03-14T20:53:20;21.63;;;3.38;;
31978;SDS011;18502;43.574;1.276;2023-03-14T20:55:47;23.98;;;3.85;;
31978;SDS011;18502;43.574;1.276;2023-03-14T20:58:13;24.02;;;5.15;;
31978;SDS011;18502;43.574;1.276;2023-03-14T21:00:39;23.13;;;4.55;;
31978;SDS011;18502;43.574;1.276;2023-03-14T21:05:35;26.42;;;5.40;;
31978;SDS011;18502;43.574;1.276;2023-03-14T21:08:01;28.90;;;5.38;;
31978;SDS011;18502;43.574;1.276;2023-03-14T21:10:26;27.05;;;6.32;;
31978;SDS011;18502;43.574;1.276;2023-03-14T21:12:52;23.55;;;4.18;;
31978;SDS011;18502;43.574;1.276;2023-03-14T21:15:18;30.00;;;5.47;;
31978;SDS011;18502;43.574;1.276;2023-03-14T21:17:43;24.60;;;3.90;;
31978;SDS011;18502;43.574;1.276;2023-03-14T21:20:10;27.80;;;5.15;;
31978;SDS011;18502;43.574;1.276;2023-03-14T21:22:36;31.42;;;5.55;;
31978;SDS011;18502;43.574;1.276;2023-03-14T21:25:03;33.53;;;6.38;;
31978;SDS011;18502;43.574;1.276;2023-03-14T21:27:30;32.55;;;11.45;;
31978;SDS011;18502;43.574;1.276;2023-03-14T21:29:56;28.67;;;7.43;;
31978;SDS011;18502;43.574;1.276;2023-03-14T21:32:22;28.20;;;6.63;;
31978;SDS011;18502;43.574;1.276;2023-03-14T21:34:48;19.50;;;4.18;;
31978;SDS011;18502;43.574;1.276;2023-03-14T21:37:15;15.02;;;3.67;;
31978;SDS011;18502;43.574;1.276;2023-03-14T21:39:41;14.85;;;4.30;;
31978;SDS011;18502;43.574;1.276;2023-03-14T21:42:07;20.52;;;4.63;;
31978;SDS011;18502;43.574;1.276;2023-03-14T21:44:33;14.20;;;3.10;;
31978;SDS011;18502;43.574;1.276;2023-03-14T21:47:01;14.10;;;2.28;;
31978;SDS011;18502;43.574;1.276;2023-03-14T21:52:05;18.05;;;4.50;;
31978;SDS011;18502;43.574;1.276;2023-03-14T21:54:32;13.65;;;4.22;;
31978;SDS011;18502;43.574;1.276;2023-03-14T21:56:59;14.20;;;4.63;;
31978;SDS011;18502;43.574;1.276;2023-03-14T21:59:26;17.10;;;3.25;;
31978;SDS011;18502;43.574;1.276;2023-03-14T22:01:52;18.73;;;3.25;;
31978;SDS011;18502;43.574;1.276;2023-03-14T22:04:19;27.13;;;4.80;;
31978;SDS011;18502;43.574;1.276;2023-03-14T22:09:16;23.25;;;4.50;;
31978;SDS011;18502;43.574;1.276;2023-03-14T22:11:42;29.65;;;5.10;;
31978;SDS011;18502;43.574;1.276;2023-03-14T22:14:07;28.35;;;3.58;;
31978;SDS011;18502;43.574;1.276;2023-03-14T22:16:33;26.67;;;4.82;;
31978;SDS011;18502;43.574;1.276;2023-03-14T22:18:59;22.70;;;3.85;;
31978;SDS011;18502;43.574;1.276;2023-03-14T22:21:25;28.42;;;3.75;;
31978;SDS011;18502;43.574;1.276;2023-03-14T22:23:51;28.50;;;4.00;;
31978;SDS011;18502;43.574;1.276;2023-03-14T22:26:16;34.78;;;4.93;;
31978;SDS011;18502;43.574;1.276;2023-03-14T22:28:42;34.47;;;4.50;;
31978;SDS011;18502;43.574;1.276;2023-03-14T22:31:08;28.25;;;4.13;;
31978;SDS011;18502;43.574;1.276;2023-03-14T22:33:34;25.52;;;4.00;;
31978;SDS011;18502;43.574;1.276;2023-03-14T22:36:00;29.70;;;4.35;;
31978;SDS011;18502;43.574;1.276;2023-03-14T22:38:26;24.05;;;2.90;;
31978;SDS011;18502;43.574;1.276;2023-03-14T22:40:51;41.03;;;4.97;;
31978;SDS011;18502;43.574;1.276;2023-03-14T22:43:17;25.95;;;3.70;;
31978;SDS011;18502;43.574;1.276;2023-03-14T22:45:43;31.13;;;3.33;;
31978;SDS011;18502;43.574;1.276;2023-03-14T22:48:09;29.90;;;5.43;;
31978;SDS011;18502;43.574;1.276;2023-03-14T22:50:36;21.98;;;3.05;;
31978;SDS011;18502;43.574;1.276;2023-03-14T22:53:03;29.65;;;4.63;;
31978;SDS011;18502;43.574;1.276;2023-03-14T22:55:29;28.00;;;5.50;;
31978;SDS011;18502;43.574;1.276;2023-03-14T22:57:55;25.85;;;3.70;;
31978;SDS011;18502;43.574;1.276;2023-03-14T23:00:22;22.20;;;4.03;;
31978;SDS011;18502;43.574;1.276;2023-03-14T23:02:49;29.98;;;4.72;;
31978;SDS011;18502;43.574;1.276;2023-03-14T23:05:14;31.25;;;4.93;;
31978;SDS011;18502;43.574;1.276;2023-03-14T23:07:40;23.95;;;3.35;;